createdAt,value
2022-09-06T00:01:10.683Z,-20464.97
2022-09-06T00:03:38.246Z,-20465.91
2022-09-06T00:06:09.576Z,-20463.47
2022-09-06T00:08:37.281Z,-20464.06
2022-09-06T00:11:04.807Z,-20464.97
2022-09-06T00:13:32.379Z,-20464.69
2022-09-06T00:16:06.862Z,-20462.25
2022-09-06T00:18:34.430Z,-20461.78
2022-09-06T00:21:01.990Z,-20459.81
2022-09-06T00:23:29.467Z,-20459.81
2022-09-06T00:26:02.540Z,-20458.44
2022-09-06T00:28:30.556Z,-20460.13
2022-09-06T00:30:58.379Z,-20459.34
2022-09-06T00:33:27.279Z,-20460.13
2022-09-06T00:35:59.891Z,-20460.13
2022-09-06T00:38:27.641Z,-20459.81
2022-09-06T00:40:55.373Z,-20461.50
2022-09-06T00:43:22.841Z,-20461.63
2022-09-06T00:45:50.453Z,-20459.50
2022-09-06T00:48:18.186Z,-20460.72
2022-09-06T00:50:48.378Z,-20458.91
2022-09-06T00:53:15.999Z,-20460.25
2022-09-06T00:55:43.683Z,-20460.13
2022-09-06T00:58:11.445Z,-20461.50
2022-09-06T01:00:39.300Z,-20462.25
2022-09-06T01:03:08.101Z,-20461.63
2022-09-06T01:05:41.791Z,-20493.25
2022-09-06T01:08:16.379Z,-20537.31
2022-09-06T01:10:54.106Z,-20552.78
2022-09-06T01:13:31.294Z,-20558.25
2022-09-06T01:16:02.981Z,-20563.56
2022-09-06T01:18:38.402Z,-20564.59
2022-09-06T01:21:15.352Z,-20564.59
2022-09-06T01:24:06.530Z,-20563.56
2022-09-06T01:26:47.722Z,-20560.06
2022-09-06T01:29:22.928Z,-20556.72
2022-09-06T01:31:53.485Z,-20553.84
2022-09-06T01:34:25.258Z,-20552.47
2022-09-06T01:37:09.337Z,-20548.09
2022-09-06T01:39:38.125Z,-20544.75
2022-09-06T01:42:07.019Z,-20540.63
2022-09-06T01:44:37.095Z,-20539.72
2022-09-06T01:47:14.751Z,-20535.94
2022-09-06T01:49:47.164Z,-20533.34
2022-09-06T01:52:17.889Z,-20531.22
2022-09-06T01:54:51.153Z,-20530.16
2022-09-06T01:57:26.520Z,-20528.19
2022-09-06T02:00:02.723Z,-20527.28
2022-09-06T02:02:36.711Z,-20527.13
2022-09-06T02:05:07.982Z,-20526.06
2022-09-06T02:07:36.484Z,-20526.06
2022-09-06T02:10:07.437Z,-20526.69
2022-09-06T02:12:36.566Z,-20527.88
2022-09-06T02:15:07.859Z,-20530.31
2022-09-06T02:17:36.818Z,-20530.94
2022-09-06T02:20:07.693Z,-20530.47
2022-09-06T02:22:37.190Z,-20529.09
2022-09-06T02:25:08.114Z,-20530.47
2022-09-06T02:27:35.769Z,-20531.22
2022-09-06T02:30:03.864Z,-20531.84
2022-09-06T02:32:36.508Z,-20530.47
2022-09-06T02:35:08.895Z,-20530.78
2022-09-06T02:37:36.672Z,-20530.94
2022-09-06T02:40:04.874Z,-20533.97
2022-09-06T02:42:32.486Z,-20533.34
2022-09-06T02:45:00.017Z,-20533.66
2022-09-06T02:47:27.471Z,-20529.25
2022-09-06T02:49:56.278Z,-20523.03
2022-09-06T02:52:23.774Z,-20523.50
2022-09-06T02:54:51.683Z,-20524.69
2022-09-06T02:57:19.177Z,-20520.75
2022-09-06T02:59:46.994Z,-20520.75
2022-09-06T03:02:14.491Z,-20521.97
2022-09-06T03:04:41.969Z,-20516.66
2022-09-06T03:07:10.842Z,-20513.91
2022-09-06T03:09:38.314Z,-20513.16
2022-09-06T03:12:05.945Z,-20508.44
2022-09-06T03:14:35.937Z,-20506.31
2022-09-06T03:17:03.661Z,-20503.91
2022-09-06T03:19:31.174Z,-20504.50
2022-09-06T03:21:58.659Z,-20505.13
2022-09-06T03:24:27.551Z,-20504.81
2022-09-06T03:26:55.014Z,-20505.13
2022-09-06T03:29:22.488Z,-20504.50
2022-09-06T03:31:49.960Z,-20504.50
2022-09-06T03:34:17.458Z,-20499.34
2022-09-06T03:36:44.916Z,-20497.97
2022-09-06T03:39:12.379Z,-20502.69
2022-09-06T03:41:41.194Z,-20499.19
2022-09-06T03:44:08.656Z,-20497.50
2022-09-06T03:46:36.125Z,-20498.28
2022-09-06T03:49:03.615Z,-20498.72
2022-09-06T03:51:31.141Z,-20496.31
2022-09-06T03:53:58.681Z,-20489.91
2022-09-06T03:56:26.232Z,-20491.13
2022-09-06T03:58:55.038Z,-20488.53
2022-09-06T04:01:22.575Z,-20488.41
2022-09-06T04:03:50.142Z,-20489.00
2022-09-06T04:06:17.657Z,-20488.84
2022-09-06T04:08:45.109Z,-20485.66
2022-09-06T04:11:12.584Z,-20481.84
2022-09-06T04:13:40.086Z,-20478.97
2022-09-06T04:16:09.076Z,-20477.91
2022-09-06T04:18:36.600Z,-20474.88
2022-09-06T04:21:04.099Z,-20474.72
2022-09-06T04:23:32.830Z,-20473.50
2022-09-06T04:26:02.844Z,-20472.75
2022-09-06T04:28:30.337Z,-20469.84
2022-09-06T04:31:03.314Z,-20467.41
2022-09-06T04:33:33.791Z,-20468.34
2022-09-06T04:36:02.155Z,-20465.44
2022-09-06T04:38:30.902Z,-20464.69
2022-09-06T04:40:58.370Z,-20462.84
2022-09-06T04:43:25.894Z,-20462.25
2022-09-06T04:45:53.479Z,-20457.06
2022-09-06T04:48:21.076Z,-20456.78
2022-09-06T04:50:50.013Z,-20453.88
2022-09-06T04:53:17.541Z,-20455.84
2022-09-06T04:55:45.080Z,-20452.06
2022-09-06T04:58:12.565Z,-20451.00
2022-09-06T05:00:42.270Z,-20451.28
2022-09-06T05:03:09.925Z,-20452.50
2022-09-06T05:05:37.879Z,-20448.25
2022-09-06T05:08:06.963Z,-20444.59
2022-09-06T05:10:34.718Z,-20445.50
2022-09-06T05:13:02.234Z,-20444.59
2022-09-06T05:15:29.684Z,-20444.75
2022-09-06T05:18:03.118Z,-20444.44
2022-09-06T05:20:30.580Z,-20444.59
2022-09-06T05:22:58.038Z,-20447.34
2022-09-06T05:25:26.861Z,-20448.25
2022-09-06T05:27:54.341Z,-20450.06
2022-09-06T05:30:21.845Z,-20455.69
2022-09-06T05:32:49.369Z,-20457.69
2022-09-06T05:35:16.946Z,-20458.28
2022-09-06T05:37:44.407Z,-20461.34
2022-09-06T05:40:12.360Z,-20464.84
2022-09-06T05:42:41.649Z,-20467.25
2022-09-06T05:45:09.379Z,-20465.28
2022-09-06T05:47:36.834Z,-20465.13
2022-09-06T05:50:04.517Z,-20464.84
2022-09-06T05:52:33.005Z,-20464.06
2022-09-06T05:55:00.507Z,-20461.94
2022-09-06T05:57:27.977Z,-20465.28
2022-09-06T05:59:56.791Z,-20468.47
2022-09-06T06:02:24.385Z,-20469.09
2022-09-06T06:04:52.466Z,-20470.47
2022-09-06T06:07:19.918Z,-20473.03
2022-09-06T06:09:47.509Z,-20478.81
2022-09-06T06:12:14.990Z,-20482.91
2022-09-06T06:14:42.448Z,-20481.84
2022-09-06T06:17:11.250Z,-20482.63
2022-09-06T06:19:38.816Z,-20485.81
2022-09-06T06:22:06.268Z,-20488.25
2022-09-06T06:24:33.802Z,-20489.78
2022-09-06T06:27:01.238Z,-20489.16
2022-09-06T06:29:28.712Z,-20491.13
2022-09-06T06:31:56.261Z,-20491.91
2022-09-06T06:34:25.158Z,-20506.47
2022-09-06T06:36:52.882Z,-20513.16
2022-09-06T06:39:20.398Z,-20521.97
2022-09-06T06:41:48.828Z,-20531.22
2022-09-06T06:44:16.284Z,-20537.91
2022-09-06T06:46:43.781Z,-20550.34
2022-09-06T06:49:11.258Z,-20564.00
2022-09-06T06:51:40.329Z,-20572.81
2022-09-06T06:54:07.806Z,-20594.94
2022-09-06T06:56:36.230Z,-20611.28
2022-09-06T06:59:05.085Z,-20625.53
2022-09-06T07:01:33.655Z,-20627.78
2022-09-06T07:04:01.449Z,-20637.63
2022-09-06T07:09:19.255Z,-20657.28
2022-09-06T07:11:48.579Z,-20651.84
2022-09-06T07:14:16.066Z,-20648.22
2022-09-06T07:16:43.661Z,-20646.41
2022-09-06T07:22:02.794Z,-20653.81
2022-09-06T07:24:34.093Z,-20670.28
2022-09-06T07:29:49.030Z,-20659.88
2022-09-06T07:32:16.485Z,-20670.00
2022-09-06T07:34:44.147Z,-20675.44
2022-09-06T07:37:11.613Z,-20684.81
2022-09-06T07:39:41.259Z,-20684.19
2022-09-06T07:42:09.011Z,-20702.94
2022-09-06T07:44:36.494Z,-20712.88
2022-09-06T07:55:30.232Z,-20701.41
2022-09-06T07:57:57.717Z,-20681.78
2022-09-06T08:00:25.262Z,-20673.03
2022-09-06T08:02:53.003Z,-20673.03
2022-09-06T08:10:56.845Z,-20740.97
2022-09-06T08:13:24.494Z,-20754.81
2022-09-06T08:15:58.569Z,-20761.16
2022-09-06T08:18:26.117Z,-20771.25
2022-09-06T08:20:53.589Z,-20777.44
2022-09-06T08:23:21.075Z,-20795.81
2022-09-06T08:25:58.477Z,-20806.94
2022-09-06T08:28:28.849Z,-20788.56
2022-09-06T08:30:56.689Z,-20794.31
2022-09-06T08:33:25.585Z,-20794.31
2022-09-06T08:35:57.262Z,-20792.78
2022-09-06T08:38:24.828Z,-20811.91
2022-09-06T08:40:52.813Z,-20806.94
2022-09-06T08:43:22.642Z,-20802.56
2022-09-06T08:45:55.878Z,-20797.31
2022-09-06T08:48:24.768Z,-20799.88
2022-09-06T08:50:58.066Z,-20804.38
2022-09-06T08:53:25.693Z,-20794.00
2022-09-06T08:55:56.167Z,-20790.69
2022-09-06T08:58:32.344Z,-20816.41
2022-09-06T09:01:03.536Z,-20818.06
2022-09-06T09:03:33.244Z,-20825.28
2022-09-06T09:06:03.571Z,-20820.47
2022-09-06T09:08:33.709Z,-20833.84
2022-09-06T09:11:02.919Z,-20835.66
2022-09-06T09:13:40.331Z,-20837.47
2022-09-06T09:16:08.566Z,-20854.28
2022-09-06T09:18:40.645Z,-20826.34
2022-09-06T09:21:08.341Z,-20830.41
2022-09-06T09:23:36.331Z,-20843.16
2022-09-06T09:26:08.189Z,-20859.25
2022-09-06T09:28:37.525Z,-20865.56
2022-09-06T09:31:07.322Z,-20871.56
2022-09-06T09:33:38.811Z,-20898.56
2022-09-06T09:36:10.381Z,-20912.66
2022-09-06T09:38:43.768Z,-20914.75
2022-09-06T09:41:24.849Z,-20920.00
2022-09-06T09:44:03.658Z,-20904.13
2022-09-06T09:46:33.998Z,-20899.63
2022-09-06T09:49:06.181Z,-20886.13
2022-09-06T09:51:35.728Z,-20871.88
2022-09-06T09:54:05.661Z,-20890.16
2022-09-06T09:56:47.222Z,-20900.06
2022-09-06T09:59:26.678Z,-20921.66
2022-09-06T10:01:56.963Z,-20913.56
2022-09-06T10:04:46.098Z,-20897.53
2022-09-06T10:07:16.869Z,-20909.66
2022-09-06T10:09:47.781Z,-20903.81
2022-09-06T10:12:19.876Z,-20916.84
2022-09-06T10:14:50.301Z,-20897.81
2022-09-06T10:17:28.944Z,-20883.72
2022-09-06T10:19:56.713Z,-20860.16
2022-09-06T10:22:28.905Z,-20851.75
2022-09-06T10:25:39.974Z,-20893.16
2022-09-06T10:28:38.965Z,-20898.88
2022-09-06T10:31:37.793Z,-20933.94
2022-09-06T10:34:19.860Z,-20927.19
2022-09-06T10:36:53.568Z,-20917.75
2022-09-06T10:39:35.036Z,-20921.81
2022-09-06T10:42:13.894Z,-20908.47
2022-09-06T10:44:59.288Z,-20897.38
2022-09-06T10:47:36.226Z,-20922.09
2022-09-06T10:50:06.093Z,-20919.41
2022-09-06T10:52:39.493Z,-20904.25
2022-09-06T10:55:10.645Z,-20911.16
2022-09-06T11:00:37.123Z,-20946.81
2022-09-06T11:06:08.692Z,-20961.78
2022-09-06T11:11:23.189Z,-20974.03
2022-09-06T11:13:51.066Z,-20978.81
2022-09-06T11:16:24.936Z,-20958.94
2022-09-06T11:19:00.418Z,-20961.78
2022-09-06T11:22:08.157Z,-20971.34
2022-09-06T11:24:51.514Z,-20956.69
2022-09-06T11:27:29.069Z,-20956.09
2022-09-06T11:29:57.662Z,-20950.72
2022-09-06T11:32:32.855Z,-20930.19
2022-09-06T11:35:05.706Z,-20898.88
2022-09-06T11:37:35.642Z,-20893.31
2022-09-06T11:40:29.410Z,-20896.78
2022-09-06T11:43:13.415Z,-20894.38
2022-09-06T11:45:45.634Z,-20894.38
2022-09-06T11:48:35.213Z,-20933.19
2022-09-06T11:51:07.592Z,-20936.03
2022-09-06T11:53:56.250Z,-20958.19
2022-09-06T11:56:30.506Z,-20927.34
2022-09-06T11:59:02.708Z,-20948.00
2022-09-06T12:01:36.574Z,-20947.25
2022-09-06T12:04:09.726Z,-20937.53
2022-09-06T12:06:43.654Z,-20912.22
2022-09-06T12:09:32.032Z,-20908.00
2022-09-06T12:12:01.327Z,-20889.28
2022-09-06T12:14:34.497Z,-20885.06
2022-09-06T12:17:21.471Z,-20870.50
2022-09-06T12:19:51.737Z,-20865.25
2022-09-06T12:23:02.133Z,-20854.44
2022-09-06T12:25:58.908Z,-20868.84
2022-09-06T12:28:43.275Z,-20863.59
2022-09-06T12:31:35.700Z,-20863.31
2022-09-06T12:34:08.985Z,-20873.22
2022-09-06T12:36:36.724Z,-20869.16
2022-09-06T12:39:09.256Z,-20862.25
2022-09-06T12:41:43.633Z,-20861.34
2022-09-06T12:44:13.634Z,-20864.50
2022-09-06T12:46:48.083Z,-20866.31
2022-09-06T12:49:18.703Z,-20857.44
2022-09-06T12:51:46.611Z,-20844.53
2022-09-06T12:54:21.748Z,-20846.34
2022-09-06T12:56:51.797Z,-20849.34
2022-09-06T12:59:21.977Z,-20848.44
2022-09-06T13:02:01.312Z,-20848.28
2022-09-06T13:04:34.881Z,-20848.00
2022-09-06T13:07:05.262Z,-20843.63
2022-09-06T13:09:34.376Z,-20844.38
2022-09-06T13:12:09.157Z,-20846.34
2022-09-06T13:14:37.090Z,-20846.94
2022-09-06T13:17:04.791Z,-20836.13
2022-09-06T13:19:35.699Z,-20835.50
2022-09-06T13:22:05.466Z,-20830.25
2022-09-06T13:24:46.852Z,-20830.41
2022-09-06T13:27:27.387Z,-20828.00
2022-09-06T13:29:57.000Z,-20821.22
2022-09-06T13:32:25.017Z,-20821.22
2022-09-06T13:34:57.092Z,-20812.66
2022-09-06T13:37:26.379Z,-20801.38
2022-09-06T13:39:54.456Z,-20804.81
2022-09-06T13:42:28.986Z,-20794.16
2022-09-06T13:45:01.269Z,-20775.00
2022-09-06T13:47:29.969Z,-20779.69
2022-09-06T13:49:57.550Z,-20784.66
2022-09-06T13:52:25.158Z,-20786.91
2022-09-06T13:54:53.993Z,-20785.56
2022-09-06T13:57:24.491Z,-20791.28
2022-09-06T13:59:53.746Z,-20795.50
2022-09-06T14:02:21.429Z,-20799.88
2022-09-06T14:04:49.064Z,-20800.16
2022-09-06T14:07:16.752Z,-20800.63
2022-09-06T14:09:44.370Z,-20793.69
2022-09-06T14:12:12.381Z,-20786.16
2022-09-06T14:14:40.226Z,-20780.13
2022-09-06T14:17:09.436Z,-20779.84
2022-09-06T14:19:37.131Z,-20772.91
2022-09-06T14:22:06.826Z,-20771.41
2022-09-06T14:24:34.502Z,-20762.66
2022-09-06T14:27:02.189Z,-20746.38
2022-09-06T14:29:29.801Z,-20740.97
2022-09-06T14:31:57.427Z,-20733.72
2022-09-06T14:34:26.668Z,-20724.50
2022-09-06T14:36:54.623Z,-20715.75
2022-09-06T14:39:22.320Z,-20688.88
2022-09-06T14:41:50.486Z,-20657.28
2022-09-06T14:44:18.203Z,-20619.47
2022-09-06T14:46:47.642Z,-20612.03
2022-09-06T14:49:15.777Z,-20613.72
2022-09-06T14:51:45.877Z,-20618.84
2022-09-06T14:54:15.681Z,-20605.06
2022-09-06T14:56:44.135Z,-20591.59
2022-09-06T14:59:12.433Z,-20589.78
2022-09-06T15:01:41.335Z,-20593.41
2022-09-06T15:04:10.528Z,-20588.25
2022-09-06T15:06:40.560Z,-20582.19
2022-09-06T15:09:11.295Z,-20576.75
2022-09-06T15:11:41.093Z,-20574.00
2022-09-06T15:14:13.404Z,-20572.03
2022-09-06T15:16:41.187Z,-20579.78
2022-09-06T15:19:10.235Z,-20570.69
2022-09-06T15:21:37.984Z,-20566.72
2022-09-06T15:24:11.552Z,-20571.13
2022-09-06T15:26:42.075Z,-20582.19
2022-09-06T15:29:13.841Z,-20585.84
2022-09-06T15:31:42.510Z,-20586.91
2022-09-06T15:34:12.119Z,-20578.56
2022-09-06T15:36:39.838Z,-20572.19
2022-09-06T15:39:07.745Z,-20577.03
2022-09-06T15:41:40.410Z,-20599.47
2022-09-06T15:44:11.926Z,-20614.63
2022-09-06T15:46:44.679Z,-20631.56
2022-09-06T15:49:14.917Z,-20651.41
2022-09-06T15:51:43.230Z,-20637.94
2022-09-06T15:54:12.705Z,-20637.03
2022-09-06T15:56:40.400Z,-20630.38
2022-09-06T15:59:09.787Z,-20623.84
2022-09-06T16:01:38.083Z,-20613.72
2022-09-06T16:04:06.982Z,-20608.09
2022-09-06T16:06:37.823Z,-20603.56
2022-09-06T16:09:08.087Z,-20604.00
2022-09-06T16:11:36.768Z,-20604.94
2022-09-06T16:14:05.354Z,-20600.69
2022-09-06T16:16:35.163Z,-20598.25
2022-09-06T16:19:03.387Z,-20599.63
2022-09-06T16:21:33.217Z,-20603.72
2022-09-06T16:24:02.613Z,-20609.78
2022-09-06T16:26:32.673Z,-20613.84
2022-09-06T16:29:01.747Z,-20617.03
2022-09-06T16:31:30.158Z,-20627.34
2022-09-06T16:33:59.289Z,-20625.66
2022-09-06T16:36:28.217Z,-20624.47
2022-09-06T16:38:57.595Z,-20629.47
2022-09-06T16:41:27.592Z,-20637.03
2022-09-06T16:43:55.380Z,-20643.22
2022-09-06T16:46:25.830Z,-20648.81
2022-09-06T16:48:54.426Z,-20648.97
2022-09-06T16:51:25.277Z,-20642.16
2022-09-06T16:53:53.766Z,-20643.84
2022-09-06T16:56:23.530Z,-20646.41
2022-09-06T16:58:54.746Z,-20641.25
2022-09-06T17:01:22.873Z,-20632.19
2022-09-06T17:03:51.280Z,-20628.84
2022-09-06T17:06:20.422Z,-20624.31
2022-09-06T17:08:49.750Z,-20624.16
2022-09-06T17:11:20.521Z,-20612.50
2022-09-06T17:13:50.549Z,-20604.94
2022-09-06T17:16:36.716Z,-20595.53
2022-09-06T17:19:06.345Z,-20589.47
2022-09-06T17:21:34.352Z,-20588.56
2022-09-06T17:24:05.333Z,-20585.53
2022-09-06T17:26:35.332Z,-20585.38
2022-09-06T17:29:03.690Z,-20587.66
2022-09-06T17:31:31.867Z,-20584.94
2022-09-06T17:34:00.081Z,-20584.16
2022-09-06T17:36:30.677Z,-20585.53
2022-09-06T17:39:04.166Z,-20582.19
2022-09-06T17:41:36.565Z,-20577.34
2022-09-06T17:44:05.590Z,-20576.75
2022-09-06T17:46:33.742Z,-20573.56
2022-09-06T17:49:01.497Z,-20571.75
2022-09-06T17:51:29.506Z,-20570.06
2022-09-06T17:53:57.422Z,-20569.47
2022-09-06T17:56:27.226Z,-20568.56
2022-09-06T17:58:57.375Z,-20563.56
2022-09-06T18:01:27.670Z,-20561.44
2022-09-06T18:03:55.392Z,-20561.88
2022-09-06T18:06:24.874Z,-20561.13
2022-09-06T18:08:54.878Z,-20558.84
2022-09-06T18:11:24.812Z,-20556.41
2022-09-06T18:13:59.265Z,-20552.47
2022-09-06T18:16:27.372Z,-20550.34
2022-09-06T18:18:57.033Z,-20549.59
2022-09-06T18:21:26.199Z,-20548.09
2022-09-06T18:23:54.066Z,-20547.00
2022-09-06T18:26:22.152Z,-20545.81
2022-09-06T18:28:50.488Z,-20544.28
2022-09-06T18:31:21.974Z,-20544.59
2022-09-06T18:33:49.829Z,-20547.63
2022-09-06T18:36:19.492Z,-20549.75
2022-09-06T18:38:47.716Z,-20558.53
2022-09-06T18:41:30.782Z,-20566.13
2022-09-06T18:44:02.713Z,-20569.16
2022-09-06T18:46:32.728Z,-20571.44
2022-09-06T18:49:00.843Z,-20572.81
2022-09-06T18:51:29.221Z,-20574.00
2022-09-06T18:53:58.298Z,-20576.75
2022-09-06T18:56:27.528Z,-20573.72
2022-09-06T18:58:58.296Z,-20570.38
2022-09-06T19:01:29.106Z,-20563.69
2022-09-06T19:03:59.035Z,-20562.34
2022-09-06T19:06:28.638Z,-20555.81
2022-09-06T19:08:59.941Z,-20547.47
2022-09-06T19:11:28.463Z,-20539.72
2022-09-06T19:13:57.808Z,-20533.81
2022-09-06T19:16:27.805Z,-20533.06
2022-09-06T19:18:56.754Z,-20529.72
2022-09-06T19:21:27.424Z,-20529.88
2022-09-06T19:23:57.780Z,-20530.63
2022-09-06T19:26:27.645Z,-20530.94
2022-09-06T19:28:57.195Z,-20529.72
2022-09-06T19:31:26.913Z,-20530.47
2022-09-06T19:33:56.323Z,-20528.81
2022-09-06T19:36:26.578Z,-20530.03
2022-09-06T19:39:05.512Z,-20530.31
2022-09-06T19:41:36.677Z,-20526.69
2022-09-06T19:44:05.650Z,-20525.91
2022-09-06T19:46:34.863Z,-20524.25
2022-09-06T19:49:02.660Z,-20522.28
2022-09-06T19:51:33.000Z,-20522.72
2022-09-06T19:54:01.224Z,-20519.38
2022-09-06T19:56:30.105Z,-20517.56
2022-09-06T19:58:58.372Z,-20515.28
2022-09-06T20:01:29.158Z,-20512.09
2022-09-06T20:03:57.770Z,-20508.59
2022-09-06T20:06:25.422Z,-20507.53
2022-09-06T20:08:57.174Z,-20504.97
2022-09-06T20:11:26.654Z,-20502.69
2022-09-06T20:13:54.493Z,-20501.16
2022-09-06T20:16:24.615Z,-20500.41
2022-09-06T20:18:53.481Z,-20496.75
2022-09-06T20:21:21.201Z,-20494.78
2022-09-06T20:23:52.067Z,-20494.16
2022-09-06T20:26:23.592Z,-20492.50
2022-09-06T20:28:55.057Z,-20491.44
2022-09-06T20:31:23.171Z,-20488.09
2022-09-06T20:33:51.048Z,-20490.38
2022-09-06T20:36:19.419Z,-20489.91
2022-09-06T20:38:47.580Z,-20488.09
2022-09-06T20:41:16.003Z,-20485.66
2022-09-06T20:43:45.338Z,-20485.97
2022-09-06T20:46:14.553Z,-20483.69
2022-09-06T20:48:44.854Z,-20482.63
2022-09-06T20:51:13.845Z,-20481.72
2022-09-06T20:53:41.661Z,-20481.09
2022-09-06T20:56:13.489Z,-20478.97
2022-09-06T20:58:41.745Z,-20479.28
2022-09-06T21:01:15.116Z,-20479.88
2022-09-06T21:03:43.903Z,-20477.75
2022-09-06T21:06:13.343Z,-20478.38
2022-09-06T21:08:43.084Z,-20475.78
2022-09-06T21:11:11.907Z,-20476.38
2022-09-06T21:13:42.835Z,-20475.03
2022-09-06T21:16:12.027Z,-20473.50
2022-09-06T21:18:39.837Z,-20473.81
2022-09-06T21:21:09.341Z,-20473.50
2022-09-06T21:23:39.222Z,-20472.13
2022-09-06T21:26:09.301Z,-20469.38
2022-09-06T21:28:38.712Z,-20469.84
2022-09-06T21:31:09.005Z,-20471.38
2022-09-06T21:33:40.453Z,-20470.47
2022-09-06T21:36:33.942Z,-20468.34
2022-09-06T21:39:04.289Z,-20467.72
2022-09-06T21:41:34.367Z,-20469.25
2022-09-06T21:44:03.390Z,-20467.13
2022-09-06T21:46:33.549Z,-20465.91
2022-09-06T21:49:04.850Z,-20465.13
2022-09-06T21:51:33.368Z,-20464.06
2022-09-06T21:54:05.387Z,-20464.53
2022-09-06T21:56:34.669Z,-20464.38
2022-09-06T21:59:02.925Z,-20465.75
2022-09-06T22:01:33.517Z,-20465.44
2022-09-06T22:04:03.567Z,-20463.16
2022-09-06T22:06:33.628Z,-20463.63
2022-09-06T22:09:03.185Z,-20463.00
2022-09-06T22:11:32.846Z,-20461.94
2022-09-06T22:14:01.461Z,-20459.81
2022-09-06T22:16:30.226Z,-20459.19
2022-09-06T22:18:58.151Z,-20458.75
2022-09-06T22:21:27.296Z,-20458.44
2022-09-06T22:23:58.627Z,-20458.91
2022-09-06T22:26:27.756Z,-20457.97
2022-09-06T22:28:56.915Z,-20457.97
2022-09-06T22:31:26.628Z,-20457.06
2022-09-06T22:33:56.323Z,-20456.16
2022-09-06T22:36:24.320Z,-20456.78
2022-09-06T22:38:57.143Z,-20458.28
2022-09-06T22:41:25.218Z,-20459.34
2022-09-06T22:43:52.772Z,-20459.81
2022-09-06T22:46:20.427Z,-20462.56
2022-09-06T22:48:49.179Z,-20462.56
2022-09-06T22:51:17.242Z,-20462.09
2022-09-06T22:53:44.967Z,-20462.25
2022-09-06T22:56:14.063Z,-20461.34
2022-09-06T22:58:41.567Z,-20460.25
2022-09-06T23:01:10.405Z,-20459.19
2022-09-06T23:03:38.676Z,-20459.81
2022-09-06T23:06:06.493Z,-20459.50
2022-09-06T23:08:35.289Z,-20459.66
2022-09-06T23:11:04.979Z,-20458.28
2022-09-06T23:13:33.885Z,-20457.38
2022-09-06T23:16:03.264Z,-20459.19
2022-09-06T23:18:30.976Z,-20459.97
2022-09-06T23:20:58.606Z,-20458.28
2022-09-06T23:23:26.099Z,-20458.75
2022-09-06T23:25:54.107Z,-20459.81
2022-09-06T23:28:21.635Z,-20460.72
2022-09-06T23:30:50.489Z,-20459.50
2022-09-06T23:33:18.043Z,-20459.50
2022-09-06T23:35:45.611Z,-20459.50
2022-09-06T23:38:13.179Z,-20460.25
2022-09-06T23:40:40.654Z,-20460.13
2022-09-06T23:43:08.237Z,-20459.66
2022-09-06T23:45:35.769Z,-20461.63
2022-09-06T23:48:04.819Z,-20459.50
2022-09-06T23:50:32.596Z,-20459.81
2022-09-06T23:53:00.171Z,-20460.41
2022-09-06T23:55:27.706Z,-20461.63
2022-09-06T23:57:55.225Z,-20462.09
